sensor_id;sensor_type;location;lat;lon;timestamp;pressure;altitude;pressure_sealevel;temperature;humidity
64095;BME280;50353;51.420;5.682;2023-11-21T00:01:05;100830.78;;;6.96;100.00
64095;BME280;50353;51.420;5.682;2023-11-21T00:03:33;100832.84;;;7.08;100.00
64095;BME280;50353;51.420;5.682;2023-11-21T00:05:59;100831.44;;;7.01;100.00
64095;BME280;50353;51.420;5.682;2023-11-21T00:08:25;100837.69;;;7.18;100.00
64095;BME280;50353;51.420;5.682;2023-11-21T00:10:51;100836.28;;;7.10;100.00
64095;BME280;50353;51.420;5.682;2023-11-21T00:13:16;100841.88;;;7.22;100.00
64095;BME280;50353;51.420;5.682;2023-11-21T00:15:41;100839.25;;;7.22;100.00
64095;BME280;50353;51.420;5.682;2023-11-21T00:18:07;100836.78;;;7.19;100.00
64095;BME280;50353;51.420;5.682;2023-11-21T00:20:32;100833.75;;;7.26;100.00
64095;BME280;50353;51.420;5.682;2023-11-21T00:22:57;100831.72;;;7.14;100.00
64095;BME280;50353;51.420;5.682;2023-11-21T00:25:24;100847.34;;;6.98;100.00
64095;BME280;50353;51.420;5.682;2023-11-21T00:27:50;100852.38;;;7.03;100.00
64095;BME280;50353;51.420;5.682;2023-11-21T00:30:15;100859.34;;;7.04;100.00
64095;BME280;50353;51.420;5.682;2023-11-21T00:32:40;100858.97;;;7.11;100.00
64095;BME280;50353;51.420;5.682;2023-11-21T00:35:06;100862.75;;;7.25;100.00
64095;BME280;50353;51.420;5.682;2023-11-21T00:37:31;100858.16;;;7.30;100.00
64095;BME280;50353;51.420;5.682;2023-11-21T00:39:57;100853.22;;;7.22;100.00
64095;BME280;50353;51.420;5.682;2023-11-21T00:42:22;100859.28;;;7.24;100.00
64095;BME280;50353;51.420;5.682;2023-11-21T00:44:48;100855.28;;;7.16;100.00
64095;BME280;50353;51.420;5.682;2023-11-21T00:47:13;100865.19;;;7.10;100.00
64095;BME280;50353;51.420;5.682;2023-11-21T00:49:38;100860.19;;;7.04;100.00
64095;BME280;50353;51.420;5.682;2023-11-21T00:52:04;100860.78;;;7.11;100.00
64095;BME280;50353;51.420;5.682;2023-11-21T00:54:30;100862.41;;;7.14;100.00
64095;BME280;50353;51.420;5.682;2023-11-21T00:56:55;100851.88;;;7.14;100.00
64095;BME280;50353;51.420;5.682;2023-11-21T00:59:21;100849.19;;;7.15;100.00
64095;BME280;50353;51.420;5.682;2023-11-21T01:01:48;100856.34;;;7.11;100.00
64095;BME280;50353;51.420;5.682;2023-11-21T01:04:13;100875.63;;;7.12;100.00
64095;BME280;50353;51.420;5.682;2023-11-21T01:06:38;100873.91;;;7.11;100.00
64095;BME280;50353;51.420;5.682;2023-11-21T01:09:04;100875.22;;;7.21;100.00
64095;BME280;50353;51.420;5.682;2023-11-21T01:11:34;100872.19;;;7.10;100.00
64095;BME280;50353;51.420;5.682;2023-11-21T01:14:01;100870.63;;;7.06;100.00
64095;BME280;50353;51.420;5.682;2023-11-21T01:16:28;100871.03;;;6.97;100.00
64095;BME280;50353;51.420;5.682;2023-11-21T01:18:53;100880.31;;;7.05;100.00
64095;BME280;50353;51.420;5.682;2023-11-21T01:21:19;100884.25;;;6.95;100.00
64095;BME280;50353;51.420;5.682;2023-11-21T01:23:44;100892.97;;;6.76;100.00
64095;BME280;50353;51.420;5.682;2023-11-21T01:26:09;100897.53;;;6.92;100.00
64095;BME280;50353;51.420;5.682;2023-11-21T01:28:34;100892.59;;;6.84;100.00
64095;BME280;50353;51.420;5.682;2023-11-21T01:31:00;100898.97;;;6.99;100.00
64095;BME280;50353;51.420;5.682;2023-11-21T01:33:25;100904.16;;;6.80;100.00
64095;BME280;50353;51.420;5.682;2023-11-21T01:35:51;100908.72;;;6.76;100.00
64095;BME280;50353;51.420;5.682;2023-11-21T01:38:18;100901.72;;;6.96;100.00
64095;BME280;50353;51.420;5.682;2023-11-21T01:40:43;100907.06;;;6.94;100.00
64095;BME280;50353;51.420;5.682;2023-11-21T01:43:09;100914.63;;;6.82;100.00
64095;BME280;50353;51.420;5.682;2023-11-21T01:45:34;100908.19;;;6.89;100.00
64095;BME280;50353;51.420;5.682;2023-11-21T01:48:00;100916.00;;;6.90;100.00
64095;BME280;50353;51.420;5.682;2023-11-21T01:50:26;100913.44;;;6.89;100.00
64095;BME280;50353;51.420;5.682;2023-11-21T01:52:52;100918.69;;;6.89;100.00
64095;BME280;50353;51.420;5.682;2023-11-21T01:55:18;100911.50;;;6.92;100.00
64095;BME280;50353;51.420;5.682;2023-11-21T01:57:44;100918.69;;;6.89;100.00
64095;BME280;50353;51.420;5.682;2023-11-21T02:00:10;100909.69;;;6.94;100.00
64095;BME280;50353;51.420;5.682;2023-11-21T02:02:43;100905.19;;;6.97;100.00
64095;BME280;50353;51.420;5.682;2023-11-21T02:05:10;100916.84;;;6.91;100.00
64095;BME280;50353;51.420;5.682;2023-11-21T02:07:35;100911.06;;;6.83;100.00
64095;BME280;50353;51.420;5.682;2023-11-21T02:10:01;100907.91;;;6.74;100.00
64095;BME280;50353;51.420;5.682;2023-11-21T02:12:26;100910.38;;;6.79;100.00
64095;BME280;50353;51.420;5.682;2023-11-21T02:14:52;100907.28;;;6.90;100.00
64095;BME280;50353;51.420;5.682;2023-11-21T02:17:18;100916.13;;;6.87;100.00
64095;BME280;50353;51.420;5.682;2023-11-21T02:19:43;100916.22;;;6.86;100.00
64095;BME280;50353;51.420;5.682;2023-11-21T02:22:10;100926.06;;;6.81;100.00
64095;BME280;50353;51.420;5.682;2023-11-21T02:24:37;100929.78;;;6.96;100.00
64095;BME280;50353;51.420;5.682;2023-11-21T02:27:02;100929.00;;;6.93;100.00
64095;BME280;50353;51.420;5.682;2023-11-21T02:29:27;100943.72;;;6.98;100.00
64095;BME280;50353;51.420;5.682;2023-11-21T02:31:54;100939.09;;;7.03;100.00
64095;BME280;50353;51.420;5.682;2023-11-21T02:34:20;100945.16;;;7.05;100.00
64095;BME280;50353;51.420;5.682;2023-11-21T02:36:46;100936.34;;;7.06;100.00
64095;BME280;50353;51.420;5.682;2023-11-21T02:39:14;100942.94;;;6.96;100.00
64095;BME280;50353;51.420;5.682;2023-11-21T02:41:40;100941.38;;;6.91;100.00
64095;BME280;50353;51.420;5.682;2023-11-21T02:44:06;100940.94;;;7.01;100.00
64095;BME280;50353;51.420;5.682;2023-11-21T02:46:33;100946.94;;;7.04;100.00
64095;BME280;50353;51.420;5.682;2023-11-21T02:49:08;100946.03;;;6.85;100.00
64095;BME280;50353;51.420;5.682;2023-11-21T02:51:36;100953.25;;;6.80;100.00
64095;BME280;50353;51.420;5.682;2023-11-21T02:54:01;100950.38;;;6.86;100.00
64095;BME280;50353;51.420;5.682;2023-11-21T02:56:28;100949.88;;;6.97;100.00
64095;BME280;50353;51.420;5.682;2023-11-21T02:58:55;100962.84;;;7.01;100.00
64095;BME280;50353;51.420;5.682;2023-11-21T03:01:20;100960.22;;;7.01;100.00
64095;BME280;50353;51.420;5.682;2023-11-21T03:03:46;100956.84;;;6.98;100.00
64095;BME280;50353;51.420;5.682;2023-11-21T03:06:12;100960.59;;;6.92;100.00
64095;BME280;50353;51.420;5.682;2023-11-21T03:08:38;100960.13;;;7.03;100.00
64095;BME280;50353;51.420;5.682;2023-11-21T03:11:03;100961.19;;;6.99;100.00
64095;BME280;50353;51.420;5.682;2023-11-21T03:13:29;100963.28;;;7.11;100.00
64095;BME280;50353;51.420;5.682;2023-11-21T03:15:54;100973.75;;;6.92;100.00
64095;BME280;50353;51.420;5.682;2023-11-21T03:18:19;100967.94;;;7.04;100.00
64095;BME280;50353;51.420;5.682;2023-11-21T03:20:47;100971.63;;;7.00;100.00
64095;BME280;50353;51.420;5.682;2023-11-21T03:23:12;100971.69;;;6.99;100.00
64095;BME280;50353;51.420;5.682;2023-11-21T03:25:38;100972.69;;;6.96;100.00
64095;BME280;50353;51.420;5.682;2023-11-21T03:28:03;100979.97;;;6.89;100.00
64095;BME280;50353;51.420;5.682;2023-11-21T03:30:29;100974.03;;;6.86;100.00
64095;BME280;50353;51.420;5.682;2023-11-21T03:32:54;100986.13;;;6.88;100.00
64095;BME280;50353;51.420;5.682;2023-11-21T03:35:19;100994.00;;;6.90;100.00
64095;BME280;50353;51.420;5.682;2023-11-21T03:37:46;100999.19;;;6.91;100.00
64095;BME280;50353;51.420;5.682;2023-11-21T03:40:11;100996.47;;;6.93;100.00
64095;BME280;50353;51.420;5.682;2023-11-21T03:42:37;100994.50;;;6.98;100.00
64095;BME280;50353;51.420;5.682;2023-11-21T03:45:04;100999.94;;;6.93;100.00
64095;BME280;50353;51.420;5.682;2023-11-21T03:47:30;100999.41;;;6.85;100.00
64095;BME280;50353;51.420;5.682;2023-11-21T03:49:55;101003.97;;;6.82;100.00
64095;BME280;50353;51.420;5.682;2023-11-21T03:52:21;101003.09;;;6.81;100.00
64095;BME280;50353;51.420;5.682;2023-11-21T03:54:46;101003.81;;;6.64;100.00
64095;BME280;50353;51.420;5.682;2023-11-21T03:57:12;101004.06;;;6.79;100.00
64095;BME280;50353;51.420;5.682;2023-11-21T03:59:40;101003.91;;;6.83;100.00
64095;BME280;50353;51.420;5.682;2023-11-21T04:02:05;101003.41;;;6.73;100.00
64095;BME280;50353;51.420;5.682;2023-11-21T04:04:30;101011.56;;;6.67;100.00
64095;BME280;50353;51.420;5.682;2023-11-21T04:06:55;101006.59;;;6.82;100.00
64095;BME280;50353;51.420;5.682;2023-11-21T04:09:21;101007.50;;;6.81;100.00
64095;BME280;50353;51.420;5.682;2023-11-21T04:11:50;101010.81;;;6.86;100.00
64095;BME280;50353;51.420;5.682;2023-11-21T04:14:15;101019.72;;;6.82;100.00
64095;BME280;50353;51.420;5.682;2023-11-21T04:16:40;101017.34;;;6.75;100.00
64095;BME280;50353;51.420;5.682;2023-11-21T04:19:06;101011.69;;;6.64;100.00
64095;BME280;50353;51.420;5.682;2023-11-21T04:21:31;101017.88;;;6.84;100.00
64095;BME280;50353;51.420;5.682;2023-11-21T04:23:58;101028.00;;;6.93;100.00
64095;BME280;50353;51.420;5.682;2023-11-21T04:26:23;101030.56;;;6.74;100.00
64095;BME280;50353;51.420;5.682;2023-11-21T04:28:48;101023.88;;;6.65;100.00
64095;BME280;50353;51.420;5.682;2023-11-21T04:31:14;101034.47;;;6.64;100.00
64095;BME280;50353;51.420;5.682;2023-11-21T04:33:40;101039.13;;;6.77;100.00
64095;BME280;50353;51.420;5.682;2023-11-21T04:36:05;101040.16;;;6.75;100.00
64095;BME280;50353;51.420;5.682;2023-11-21T04:38:31;101035.94;;;6.71;100.00
64095;BME280;50353;51.420;5.682;2023-11-21T04:40:56;101037.75;;;6.69;100.00
64095;BME280;50353;51.420;5.682;2023-11-21T04:43:21;101042.53;;;6.59;100.00
64095;BME280;50353;51.420;5.682;2023-11-21T04:45:47;101046.88;;;6.60;100.00
64095;BME280;50353;51.420;5.682;2023-11-21T04:48:12;101043.72;;;6.52;100.00
64095;BME280;50353;51.420;5.682;2023-11-21T04:50:37;101055.41;;;6.65;100.00
64095;BME280;50353;51.420;5.682;2023-11-21T04:53:04;101053.44;;;6.70;100.00
64095;BME280;50353;51.420;5.682;2023-11-21T04:55:30;101063.19;;;6.68;100.00
64095;BME280;50353;51.420;5.682;2023-11-21T04:57:55;101060.81;;;6.83;100.00
64095;BME280;50353;51.420;5.682;2023-11-21T05:00:21;101068.03;;;6.77;100.00
64095;BME280;50353;51.420;5.682;2023-11-21T05:02:46;101061.88;;;6.79;100.00
64095;BME280;50353;51.420;5.682;2023-11-21T05:05:12;101072.81;;;6.68;100.00
64095;BME280;50353;51.420;5.682;2023-11-21T05:07:39;101073.38;;;6.54;100.00
64095;BME280;50353;51.420;5.682;2023-11-21T05:10:08;101078.31;;;6.84;100.00
64095;BME280;50353;51.420;5.682;2023-11-21T05:12:36;101079.78;;;6.69;100.00
64095;BME280;50353;51.420;5.682;2023-11-21T05:15:05;101084.19;;;6.68;100.00
64095;BME280;50353;51.420;5.682;2023-11-21T05:17:38;101087.00;;;6.64;100.00
64095;BME280;50353;51.420;5.682;2023-11-21T05:20:07;101087.19;;;6.59;100.00
64095;BME280;50353;51.420;5.682;2023-11-21T05:22:35;101090.97;;;6.52;100.00
64095;BME280;50353;51.420;5.682;2023-11-21T05:25:02;101098.88;;;6.50;100.00
64095;BME280;50353;51.420;5.682;2023-11-21T05:27:28;101093.34;;;6.58;100.00
64095;BME280;50353;51.420;5.682;2023-11-21T05:29:54;101093.84;;;6.68;100.00
64095;BME280;50353;51.420;5.682;2023-11-21T05:32:20;101095.63;;;6.67;100.00
64095;BME280;50353;51.420;5.682;2023-11-21T05:34:45;101092.00;;;6.70;100.00
64095;BME280;50353;51.420;5.682;2023-11-21T05:37:10;101097.81;;;6.78;100.00
64095;BME280;50353;51.420;5.682;2023-11-21T05:39:35;101094.72;;;6.68;100.00
64095;BME280;50353;51.420;5.682;2023-11-21T05:42:01;101094.56;;;6.71;100.00
64095;BME280;50353;51.420;5.682;2023-11-21T05:44:26;101089.44;;;6.68;100.00
64095;BME280;50353;51.420;5.682;2023-11-21T05:46:51;101096.81;;;6.58;100.00
64095;BME280;50353;51.420;5.682;2023-11-21T05:49:17;101106.13;;;6.45;100.00
64095;BME280;50353;51.420;5.682;2023-11-21T05:51:42;101107.50;;;6.54;100.00
64095;BME280;50353;51.420;5.682;2023-11-21T05:54:07;101104.88;;;6.54;100.00
64095;BME280;50353;51.420;5.682;2023-11-21T05:56:33;101110.28;;;6.51;100.00
64095;BME280;50353;51.420;5.682;2023-11-21T05:58:58;101108.81;;;6.66;100.00
64095;BME280;50353;51.420;5.682;2023-11-21T06:01:25;101118.41;;;6.67;100.00
64095;BME280;50353;51.420;5.682;2023-11-21T06:03:53;101117.88;;;6.57;100.00
64095;BME280;50353;51.420;5.682;2023-11-21T06:06:19;101122.25;;;6.58;100.00
64095;BME280;50353;51.420;5.682;2023-11-21T06:08:44;101134.94;;;6.47;100.00
64095;BME280;50353;51.420;5.682;2023-11-21T06:11:09;101141.66;;;6.54;100.00
64095;BME280;50353;51.420;5.682;2023-11-21T06:13:36;101141.13;;;6.68;100.00
64095;BME280;50353;51.420;5.682;2023-11-21T06:16:01;101134.59;;;6.56;100.00
64095;BME280;50353;51.420;5.682;2023-11-21T06:18:27;101137.00;;;6.38;100.00
64095;BME280;50353;51.420;5.682;2023-11-21T06:20:52;101146.44;;;6.66;100.00
64095;BME280;50353;51.420;5.682;2023-11-21T06:23:18;101145.03;;;6.57;100.00
64095;BME280;50353;51.420;5.682;2023-11-21T06:25:43;101142.06;;;6.67;100.00
64095;BME280;50353;51.420;5.682;2023-11-21T06:28:09;101148.94;;;6.69;100.00
64095;BME280;50353;51.420;5.682;2023-11-21T06:30:35;101153.28;;;6.70;100.00
64095;BME280;50353;51.420;5.682;2023-11-21T06:33:00;101160.72;;;6.59;100.00
64095;BME280;50353;51.420;5.682;2023-11-21T06:35:26;101156.59;;;6.75;100.00
64095;BME280;50353;51.420;5.682;2023-11-21T06:37:54;101166.19;;;6.53;100.00
64095;BME280;50353;51.420;5.682;2023-11-21T06:40:20;101166.13;;;6.54;100.00
64095;BME280;50353;51.420;5.682;2023-11-21T06:42:45;101166.19;;;6.53;100.00
64095;BME280;50353;51.420;5.682;2023-11-21T06:45:12;101169.84;;;6.72;100.00
64095;BME280;50353;51.420;5.682;2023-11-21T06:47:38;101169.53;;;6.80;100.00
64095;BME280;50353;51.420;5.682;2023-11-21T06:50:03;101172.16;;;6.80;100.00
64095;BME280;50353;51.420;5.682;2023-11-21T06:52:29;101178.28;;;6.81;100.00
64095;BME280;50353;51.420;5.682;2023-11-21T06:54:54;101187.28;;;6.75;100.00
64095;BME280;50353;51.420;5.682;2023-11-21T06:57:20;101179.97;;;6.59;100.00
64095;BME280;50353;51.420;5.682;2023-11-21T06:59:45;101181.63;;;6.62;100.00
64095;BME280;50353;51.420;5.682;2023-11-21T07:02:11;101184.09;;;6.67;100.00
64095;BME280;50353;51.420;5.682;2023-11-21T07:04:36;101182.50;;;6.85;100.00
64095;BME280;50353;51.420;5.682;2023-11-21T07:07:02;101190.94;;;6.93;100.00
64095;BME280;50353;51.420;5.682;2023-11-21T07:09:28;101196.00;;;6.98;100.00
64095;BME280;50353;51.420;5.682;2023-11-21T07:11:54;101206.38;;;7.02;100.00
64095;BME280;50353;51.420;5.682;2023-11-21T07:14:20;101200.72;;;6.89;100.00
64095;BME280;50353;51.420;5.682;2023-11-21T07:16:46;101207.97;;;6.83;100.00
64095;BME280;50353;51.420;5.682;2023-11-21T07:19:12;101214.72;;;6.90;100.00
64095;BME280;50353;51.420;5.682;2023-11-21T07:21:38;101217.94;;;6.97;100.00
64095;BME280;50353;51.420;5.682;2023-11-21T07:24:05;101222.97;;;6.81;100.00
64095;BME280;50353;51.420;5.682;2023-11-21T07:26:32;101232.66;;;7.02;100.00
64095;BME280;50353;51.420;5.682;2023-11-21T07:28:58;101233.69;;;6.98;100.00
64095;BME280;50353;51.420;5.682;2023-11-21T07:31:23;101232.88;;;6.96;100.00
64095;BME280;50353;51.420;5.682;2023-11-21T07:33:49;101239.44;;;7.30;100.00
64095;BME280;50353;51.420;5.682;2023-11-21T07:36:15;101248.84;;;7.14;100.00
64095;BME280;50353;51.420;5.682;2023-11-21T07:38:44;101255.97;;;7.10;100.00
64095;BME280;50353;51.420;5.682;2023-11-21T07:41:10;101253.47;;;7.07;100.00
64095;BME280;50353;51.420;5.682;2023-11-21T07:43:35;101258.81;;;7.05;100.00
64095;BME280;50353;51.420;5.682;2023-11-21T07:46:02;101260.47;;;7.08;100.00
64095;BME280;50353;51.420;5.682;2023-11-21T07:48:31;101265.31;;;6.95;100.00
64095;BME280;50353;51.420;5.682;2023-11-21T07:50:57;101264.19;;;7.02;100.00
64095;BME280;50353;51.420;5.682;2023-11-21T07:53:24;101269.31;;;7.05;100.00
64095;BME280;50353;51.420;5.682;2023-11-21T07:55:53;101277.41;;;6.99;100.00
64095;BME280;50353;51.420;5.682;2023-11-21T07:58:18;101269.94;;;7.12;100.00
64095;BME280;50353;51.420;5.682;2023-11-21T08:00:44;101274.22;;;7.15;100.00
64095;BME280;50353;51.420;5.682;2023-11-21T08:03:09;101281.31;;;7.13;100.00
64095;BME280;50353;51.420;5.682;2023-11-21T08:05:35;101284.34;;;7.24;100.00
64095;BME280;50353;51.420;5.682;2023-11-21T08:08:00;101280.53;;;7.33;100.00
64095;BME280;50353;51.420;5.682;2023-11-21T08:10:26;101283.69;;;7.19;100.00
64095;BME280;50353;51.420;5.682;2023-11-21T08:12:51;101292.22;;;7.25;100.00
64095;BME280;50353;51.420;5.682;2023-11-21T08:15:16;101295.88;;;7.21;100.00
64095;BME280;50353;51.420;5.682;2023-11-21T08:17:41;101293.97;;;7.25;100.00
64095;BME280;50353;51.420;5.682;2023-11-21T08:20:07;101296.59;;;7.25;100.00
64095;BME280;50353;51.420;5.682;2023-11-21T08:22:35;101301.63;;;7.31;100.00
64095;BME280;50353;51.420;5.682;2023-11-21T08:25:01;101294.53;;;7.33;100.00
64095;BME280;50353;51.420;5.682;2023-11-21T08:27:28;101309.03;;;7.43;100.00
64095;BME280;50353;51.420;5.682;2023-11-21T08:29:54;101310.69;;;7.46;100.00
64095;BME280;50353;51.420;5.682;2023-11-21T08:32:19;101312.56;;;7.42;100.00
64095;BME280;50353;51.420;5.682;2023-11-21T08:34:45;101308.00;;;7.48;100.00
64095;BME280;50353;51.420;5.682;2023-11-21T08:37:10;101306.69;;;7.58;100.00
64095;BME280;50353;51.420;5.682;2023-11-21T08:39:37;101304.88;;;7.60;100.00
64095;BME280;50353;51.420;5.682;2023-11-21T08:42:03;101309.47;;;7.55;100.00
64095;BME280;50353;51.420;5.682;2023-11-21T08:44:28;101308.97;;;7.67;100.00
64095;BME280;50353;51.420;5.682;2023-11-21T08:46:55;101313.50;;;7.64;100.00
64095;BME280;50353;51.420;5.682;2023-11-21T08:49:20;101312.41;;;7.69;100.00
64095;BME280;50353;51.420;5.682;2023-11-21T08:51:46;101318.56;;;7.68;100.00
64095;BME280;50353;51.420;5.682;2023-11-21T08:54:11;101335.41;;;7.64;100.00
64095;BME280;50353;51.420;5.682;2023-11-21T08:56:37;101330.63;;;7.52;100.00
64095;BME280;50353;51.420;5.682;2023-11-21T08:59:02;101338.16;;;7.61;100.00
64095;BME280;50353;51.420;5.682;2023-11-21T09:01:29;101337.75;;;7.72;100.00
64095;BME280;50353;51.420;5.682;2023-11-21T09:03:56;101343.09;;;7.69;100.00
64095;BME280;50353;51.420;5.682;2023-11-21T09:06:22;101344.19;;;7.85;100.00
64095;BME280;50353;51.420;5.682;2023-11-21T09:08:47;101341.41;;;7.90;100.00
64095;BME280;50353;51.420;5.682;2023-11-21T09:11:12;101342.97;;;7.94;100.00
64095;BME280;50353;51.420;5.682;2023-11-21T09:13:38;101347.41;;;7.93;100.00
64095;BME280;50353;51.420;5.682;2023-11-21T09:16:04;101343.22;;;7.88;100.00
64095;BME280;50353;51.420;5.682;2023-11-21T09:18:31;101352.59;;;7.95;100.00
64095;BME280;50353;51.420;5.682;2023-11-21T09:20:56;101352.25;;;8.03;100.00
64095;BME280;50353;51.420;5.682;2023-11-21T09:23:21;101365.25;;;8.07;100.00
64095;BME280;50353;51.420;5.682;2023-11-21T09:25:46;101370.38;;;8.10;100.00
64095;BME280;50353;51.420;5.682;2023-11-21T09:28:15;101367.63;;;8.13;100.00
64095;BME280;50353;51.420;5.682;2023-11-21T09:30:40;101361.63;;;8.10;100.00
64095;BME280;50353;51.420;5.682;2023-11-21T09:33:05;101369.66;;;8.07;100.00
64095;BME280;50353;51.420;5.682;2023-11-21T09:35:32;101375.66;;;8.10;100.00
64095;BME280;50353;51.420;5.682;2023-11-21T09:37:57;101377.09;;;8.18;100.00
64095;BME280;50353;51.420;5.682;2023-11-21T09:40:22;101381.66;;;8.14;100.00
64095;BME280;50353;51.420;5.682;2023-11-21T09:45:29;101385.53;;;8.26;100.00
64095;BME280;50353;51.420;5.682;2023-11-21T09:47:59;101382.72;;;8.31;100.00
64095;BME280;50353;51.420;5.682;2023-11-21T09:50:25;101382.53;;;8.35;100.00
64095;BME280;50353;51.420;5.682;2023-11-21T09:52:58;101389.38;;;8.39;100.00
64095;BME280;50353;51.420;5.682;2023-11-21T09:55:28;101395.69;;;8.35;100.00
64095;BME280;50353;51.420;5.682;2023-11-21T09:57:57;101398.16;;;8.40;100.00
64095;BME280;50353;51.420;5.682;2023-11-21T10:00:23;101398.66;;;8.50;100.00
64095;BME280;50353;51.420;5.682;2023-11-21T10:02:49;101402.97;;;8.51;100.00
64095;BME280;50353;51.420;5.682;2023-11-21T10:05:16;101412.25;;;8.39;100.00
64095;BME280;50353;51.420;5.682;2023-11-21T10:07:43;101412.88;;;8.45;100.00
64095;BME280;50353;51.420;5.682;2023-11-21T10:10:10;101410.94;;;8.49;100.00
64095;BME280;50353;51.420;5.682;2023-11-21T10:12:35;101419.59;;;8.53;100.00
64095;BME280;50353;51.420;5.682;2023-11-21T10:15:03;101426.59;;;8.54;100.00
64095;BME280;50353;51.420;5.682;2023-11-21T10:17:35;101419.81;;;8.48;100.00
64095;BME280;50353;51.420;5.682;2023-11-21T10:20:08;101430.88;;;8.56;100.00
64095;BME280;50353;51.420;5.682;2023-11-21T10:22:39;101432.09;;;8.68;100.00
64095;BME280;50353;51.420;5.682;2023-11-21T10:25:06;101445.72;;;8.57;100.00
64095;BME280;50353;51.420;5.682;2023-11-21T10:27:33;101439.22;;;8.66;100.00
64095;BME280;50353;51.420;5.682;2023-11-21T10:30:03;101444.69;;;8.61;100.00
64095;BME280;50353;51.420;5.682;2023-11-21T10:32:31;101440.44;;;8.59;100.00
64095;BME280;50353;51.420;5.682;2023-11-21T10:35:00;101445.56;;;8.62;100.00
64095;BME280;50353;51.420;5.682;2023-11-21T10:37:29;101435.94;;;8.82;100.00
64095;BME280;50353;51.420;5.682;2023-11-21T10:39:58;101432.00;;;8.71;100.00
64095;BME280;50353;51.420;5.682;2023-11-21T10:42:24;101438.84;;;8.75;100.00
64095;BME280;50353;51.420;5.682;2023-11-21T10:44:49;101438.72;;;8.78;100.00
64095;BME280;50353;51.420;5.682;2023-11-21T10:47:16;101437.00;;;8.77;100.00
64095;BME280;50353;51.420;5.682;2023-11-21T10:49:44;101430.53;;;8.85;100.00
64095;BME280;50353;51.420;5.682;2023-11-21T10:52:13;101438.19;;;8.91;100.00
64095;BME280;50353;51.420;5.682;2023-11-21T10:54:45;101443.81;;;9.02;100.00
64095;BME280;50353;51.420;5.682;2023-11-21T10:57:12;101446.28;;;9.07;100.00
64095;BME280;50353;51.420;5.682;2023-11-21T10:59:40;101438.94;;;8.93;100.00
64095;BME280;50353;51.420;5.682;2023-11-21T11:02:23;101431.03;;;8.93;100.00
64095;BME280;50353;51.420;5.682;2023-11-21T11:04:57;101452.84;;;9.17;100.00
64095;BME280;50353;51.420;5.682;2023-11-21T11:07:26;101442.50;;;9.12;100.00
64095;BME280;50353;51.420;5.682;2023-11-21T11:09:53;101445.50;;;9.24;100.00
64095;BME280;50353;51.420;5.682;2023-11-21T11:12:19;101447.63;;;9.16;100.00
64095;BME280;50353;51.420;5.682;2023-11-21T11:14:45;101452.06;;;9.15;100.00
64095;BME280;50353;51.420;5.682;2023-11-21T11:17:10;101460.09;;;9.12;100.00
64095;BME280;50353;51.420;5.682;2023-11-21T11:19:36;101460.75;;;9.17;100.00
64095;BME280;50353;51.420;5.682;2023-11-21T11:33:42;101472.94;;;9.20;100.00
64095;BME280;50353;51.420;5.682;2023-11-21T11:38:46;101472.56;;;9.29;100.00
64095;BME280;50353;51.420;5.682;2023-11-21T11:41:11;101478.50;;;9.34;100.00
64095;BME280;50353;51.420;5.682;2023-11-21T11:43:37;101484.53;;;9.36;100.00
64095;BME280;50353;51.420;5.682;2023-11-21T11:46:10;101487.03;;;9.39;100.00
64095;BME280;50353;51.420;5.682;2023-11-21T11:48:38;101493.81;;;9.26;100.00
64095;BME280;50353;51.420;5.682;2023-11-21T11:51:12;101499.38;;;9.39;100.00
64095;BME280;50353;51.420;5.682;2023-11-21T11:53:44;101496.00;;;9.35;100.00
64095;BME280;50353;51.420;5.682;2023-11-21T11:56:28;101500.38;;;9.36;100.00
64095;BME280;50353;51.420;5.682;2023-11-21T11:58:57;101506.53;;;9.37;100.00
64095;BME280;50353;51.420;5.682;2023-11-21T12:01:24;101501.34;;;9.34;100.00
64095;BME280;50353;51.420;5.682;2023-11-21T12:06:45;101508.13;;;9.39;100.00
64095;BME280;50353;51.420;5.682;2023-11-21T12:09:22;101503.91;;;9.56;100.00
64095;BME280;50353;51.420;5.682;2023-11-21T12:11:48;101494.41;;;9.52;100.00
64095;BME280;50353;51.420;5.682;2023-11-21T12:14:14;101502.97;;;9.57;100.00
64095;BME280;50353;51.420;5.682;2023-11-21T12:16:40;101504.53;;;9.61;100.00
64095;BME280;50353;51.420;5.682;2023-11-21T12:19:05;101515.69;;;9.68;100.00
64095;BME280;50353;51.420;5.682;2023-11-21T12:21:31;101529.59;;;9.71;100.00
64095;BME280;50353;51.420;5.682;2023-11-21T12:23:57;101521.09;;;9.64;100.00
64095;BME280;50353;51.420;5.682;2023-11-21T12:26:26;101529.09;;;9.63;100.00
64095;BME280;50353;51.420;5.682;2023-11-21T12:28:52;101530.94;;;9.61;100.00
64095;BME280;50353;51.420;5.682;2023-11-21T12:31:21;101536.09;;;9.64;100.00
64095;BME280;50353;51.420;5.682;2023-11-21T12:33:46;101530.00;;;9.62;100.00
64095;BME280;50353;51.420;5.682;2023-11-21T12:36:12;101539.72;;;9.61;100.00
64095;BME280;50353;51.420;5.682;2023-11-21T12:38:37;101541.63;;;9.58;100.00
64095;BME280;50353;51.420;5.682;2023-11-21T12:41:03;101551.19;;;9.60;100.00
64095;BME280;50353;51.420;5.682;2023-11-21T12:43:29;101550.81;;;9.70;100.00
64095;BME280;50353;51.420;5.682;2023-11-21T12:46:07;101555.28;;;9.68;100.00
64095;BME280;50353;51.420;5.682;2023-11-21T12:48:37;101556.25;;;9.65;100.00
64095;BME280;50353;51.420;5.682;2023-11-21T12:51:04;101552.19;;;9.58;100.00
64095;BME280;50353;51.420;5.682;2023-11-21T12:53:30;101552.41;;;9.53;100.00
64095;BME280;50353;51.420;5.682;2023-11-21T12:56:02;101555.56;;;9.61;100.00
64095;BME280;50353;51.420;5.682;2023-11-21T12:58:28;101550.34;;;9.60;100.00
64095;BME280;50353;51.420;5.682;2023-11-21T13:00:57;101553.91;;;9.59;100.00
64095;BME280;50353;51.420;5.682;2023-11-21T13:03:25;101549.34;;;9.62;100.00
64095;BME280;50353;51.420;5.682;2023-11-21T13:05:52;101560.25;;;9.55;100.00